Time;durP1;ratioP1;P1;durP2;ratioP2;P2;SDS_P1;SDS_P2;PMS_P1;PMS_P2;Temp;Humidity;BMP_temperature;BMP_pressure;BME280_temperature;BME280_humidity;BME280_pressure;Samples;Min_cycle;Max_cycle;Signal;HPM_P1;HPM_P2
2022/08/06 00:02:53;;;;;;;;;;;;;;;27.36;41.65;100028.94;5394798;32;36571;-69
2022/08/06 00:05:55;;;;;;;;;;;;;;;27.06;42.84;100017.13;5404502;32;36247;-69
2022/08/06 00:09:00;;;;;;;;;;;;;;;27.09;42.37;100023.00;5395940;32;35704;-75
2022/08/06 00:12:06;;;;;;;;;;;;;;;27.74;40.45;100035.31;5405213;32;46094;-77
2022/08/06 00:15:11;;;;;;;;;;;;;;;27.47;40.78;100037.47;5392862;32;34052;-75
2022/08/06 00:18:15;;;;;;;;;;;;;;;27.58;40.48;100038.09;5398567;32;36876;-75
2022/08/06 00:21:19;;;;;;;;;;;;;;;27.82;39.56;100037.94;5402438;32;37782;-67
2022/08/06 00:24:40;;;;;;;;;;;;;;;27.57;40.94;100039.12;5395597;32;45901;-74
2022/08/06 00:27:42;;;;;;;;;;;;;;;28.70;37.95;100031.13;5403887;32;35273;-75
2022/08/06 00:30:52;;;;;;;;;;;;;;;28.04;39.16;100037.13;5388962;32;36109;-75
2022/08/06 00:34:02;;;;;;;;;;;;;;;27.35;41.05;100041.59;5409237;32;35475;-67
2022/08/06 00:37:05;;;;;;;;;;;;;;;26.79;42.61;100042.62;5387975;32;45284;-75
2022/08/06 00:40:20;;;;;;;;;;;;;;;27.32;41.69;100043.81;5393336;32;36096;-74
2022/08/06 00:43:25;;;;;;;;;;;;;;;27.78;40.51;100042.03;5404811;32;36203;-75
2022/08/06 00:46:40;;;;;;;;;;;;;;;28.28;39.46;100043.34;5386718;32;47788;-68
2022/08/06 00:49:42;;;;;;;;;;;;;;;27.33;41.45;100040.94;5410879;32;35828;-74
2022/08/06 00:52:50;;;;;;;;;;;;;;;27.58;40.97;100043.50;5368026;32;37573;-74
2022/08/06 00:55:52;;;;;;;;;;;;;;;27.21;41.84;100042.34;5393754;32;35563;-68
2022/08/06 00:59:03;;;;;;;;;;;;;;;26.69;42.81;100045.53;5401883;32;35292;-72
2022/08/06 01:02:04;;;;;;;;;;;;;;;26.96;41.65;100034.31;5384963;32;45432;-73
2022/08/06 01:05:11;;;;;;;;;;;;;;;27.39;40.13;100036.69;5401877;32;44822;-75
2022/08/06 01:08:33;;;;;;;;;;;;;;;27.55;39.85;100041.97;5391009;32;35680;-68
2022/08/06 01:11:42;;;;;;;;;;;;;;;27.05;39.95;100034.28;5389188;32;45229;-67
2022/08/06 01:14:45;;;;;;;;;;;;;;;26.87;39.90;100021.88;5413011;32;34710;-70
2022/08/06 01:18:31;;;;;;;;;;;;;;;26.69;40.42;100037.44;5380505;32;44703;-67
2022/08/06 01:21:33;;;;;;;;;;;;;;;27.19;39.41;100039.81;5404702;32;34944;-68
2022/08/06 01:24:55;;;;;;;;;;;;;;;27.71;38.16;100033.00;5395018;32;36205;-67
2022/08/06 01:28:00;;;;;;;;;;;;;;;27.88;38.10;100033.69;5398617;32;36127;-70
2022/08/06 01:31:03;;;;;;;;;;;;;;;27.61;38.38;100032.34;5405120;32;34841;-69
2022/08/06 01:34:09;;;;;;;;;;;;;;;26.75;40.23;100030.53;5394890;32;44764;-68
2022/08/06 01:37:16;;;;;;;;;;;;;;;27.29;38.70;100028.81;5416755;32;34746;-74
2022/08/06 01:40:21;;;;;;;;;;;;;;;27.79;38.46;100032.91;5395259;32;35719;-74
2022/08/06 01:43:24;;;;;;;;;;;;;;;27.46;38.84;100008.81;5395336;32;36372;-74
2022/08/06 01:46:47;;;;;;;;;;;;;;;27.64;38.64;100022.03;5406454;32;35694;-68
2022/08/06 01:49:51;;;;;;;;;;;;;;;27.40;39.12;100023.03;5394563;32;34792;-69
2022/08/06 01:53:04;;;;;;;;;;;;;;;27.26;39.86;100027.31;5383402;32;35816;-67
2022/08/06 01:56:16;;;;;;;;;;;;;;;26.49;41.53;100028.06;5386171;32;36302;-73
2022/08/06 01:59:33;;;;;;;;;;;;;;;26.41;42.16;100032.44;5395034;32;35455;-72
2022/08/06 02:02:37;;;;;;;;;;;;;;;26.66;41.77;100030.56;5398193;32;48548;-67
2022/08/06 02:05:43;;;;;;;;;;;;;;;26.60;41.63;100027.69;5388378;32;35542;-74
2022/08/06 02:08:53;;;;;;;;;;;;;;;27.48;40.06;100025.66;5399142;32;35839;-69
2022/08/06 02:11:56;;;;;;;;;;;;;;;27.07;40.85;100021.50;5384817;32;35317;-76
2022/08/06 02:15:16;;;;;;;;;;;;;;;26.26;42.66;100031.41;5397597;32;45807;-74
2022/08/06 02:18:19;;;;;;;;;;;;;;;26.57;41.72;100028.88;5411372;32;36537;-76
2022/08/06 02:21:36;;;;;;;;;;;;;;;26.81;41.33;100010.97;5387188;32;45056;-68
2022/08/06 02:24:37;;;;;;;;;;;;;;;27.16;40.52;100028.53;5412420;32;34959;-67
2022/08/06 02:27:40;;;;;;;;;;;;;;;27.10;40.76;100024.69;5385140;32;34520;-67
2022/08/06 02:30:55;;;;;;;;;;;;;;;27.32;40.16;100033.87;5403216;32;35736;-75
2022/08/06 02:34:00;;;;;;;;;;;;;;;27.38;40.05;100032.31;5404316;32;35308;-68
2022/08/06 02:37:16;;;;;;;;;;;;;;;27.29;39.98;100030.66;5390599;32;35762;-74
2022/08/06 02:40:43;;;;;;;;;;;;;;;26.90;41.27;100029.63;5397658;32;45236;-74
2022/08/06 02:43:49;;;;;;;;;;;;;;;26.89;41.09;100029.78;5390941;32;35289;-74
2022/08/06 02:46:58;;;;;;;;;;;;;;;27.23;40.29;100027.66;5389814;32;36051;-74
2022/08/06 02:50:04;;;;;;;;;;;;;;;26.94;41.33;100032.81;5399644;32;34845;-67
2022/08/06 02:53:09;;;;;;;;;;;;;;;27.16;40.50;100023.97;5374916;32;46835;-67
2022/08/06 02:56:26;;;;;;;;;;;;;;;26.89;41.14;100029.78;5406374;32;35126;-67
2022/08/06 02:59:29;;;;;;;;;;;;;;;26.97;40.55;100024.38;5383166;32;36567;-72
2022/08/06 03:02:39;;;;;;;;;;;;;;;26.77;40.86;100029.31;5393157;32;46708;-66
2022/08/06 03:05:45;;;;;;;;;;;;;;;26.21;42.36;100031.06;5398878;32;37043;-69
2022/08/06 03:08:58;;;;;;;;;;;;;;;26.41;42.28;100032.44;5395482;32;35573;-73
2022/08/06 03:12:00;;;;;;;;;;;;;;;26.78;40.85;100020.22;5401133;32;35897;-75
2022/08/06 03:15:03;;;;;;;;;;;;;;;26.73;41.23;100023.44;5390263;32;35270;-67
2022/08/06 03:18:17;;;;;;;;;;;;;;;26.93;40.99;100028.44;5407017;32;36017;-76
2022/08/06 03:21:24;;;;;;;;;;;;;;;27.13;40.62;100028.91;5400796;32;37049;-74
2022/08/06 03:24:35;;;;;;;;;;;;;;;27.19;40.87;100030.91;5387636;32;45752;-73
2022/08/06 03:27:37;;;;;;;;;;;;;;;26.93;41.48;100023.87;5414062;32;36241;-67
2022/08/06 03:30:45;;;;;;;;;;;;;;;27.13;40.90;100026.19;5400235;32;34579;-74
2022/08/06 03:33:47;;;;;;;;;;;;;;;27.10;41.53;100027.37;5405442;32;34624;-68
2022/08/06 03:36:55;;;;;;;;;;;;;;;27.00;41.51;100032.97;5386924;32;36028;-67
2022/08/06 03:39:57;;;;;;;;;;;;;;;26.70;41.93;100033.72;5395218;32;35701;-67
2022/08/06 03:43:02;;;;;;;;;;;;;;;26.15;43.15;100034.47;5402199;32;35462;-75
2022/08/06 03:46:08;;;;;;;;;;;;;;;26.00;43.68;100036.97;5385187;32;46691;-75
2022/08/06 03:49:14;;;;;;;;;;;;;;;26.26;43.33;100036.78;5410335;32;34246;-75
2022/08/06 03:52:28;;;;;;;;;;;;;;;25.72;44.27;100041.81;5360282;32;36243;-76
2022/08/06 03:55:33;;;;;;;;;;;;;;;25.43;45.45;100039.53;5405617;32;35413;-70
2022/08/06 03:58:38;;;;;;;;;;;;;;;26.11;43.31;100035.81;5398661;32;45838;-74
2022/08/06 04:01:41;;;;;;;;;;;;;;;26.00;42.99;100036.13;5399029;32;35738;-73
2022/08/06 04:04:50;;;;;;;;;;;;;;;25.31;43.77;100035.47;5401456;32;36518;-75
2022/08/06 04:07:54;;;;;;;;;;;;;;;25.75;41.96;100028.03;5390559;32;35774;-74
2022/08/06 04:10:58;;;;;;;;;;;;;;;26.69;40.95;100032.06;5400730;32;37478;-68
2022/08/06 04:14:01;;;;;;;;;;;;;;;26.66;39.25;100044.03;5379912;32;34354;-67
2022/08/06 04:17:08;;;;;;;;;;;;;;;25.63;41.06;100050.84;5389010;32;47053;-76
2022/08/06 04:20:13;;;;;;;;;;;;;;;25.79;40.32;100050.94;5411239;32;36414;-73
2022/08/06 04:23:16;;;;;;;;;;;;;;;26.64;38.47;100055.97;5392757;32;35750;-73
2022/08/06 04:26:39;;;;;;;;;;;;;;;26.32;38.91;100062.22;5410006;32;44841;-75
2022/08/06 04:29:41;;;;;;;;;;;;;;;25.34;41.80;100057.50;5375603;32;35664;-68
2022/08/06 04:32:59;;;;;;;;;;;;;;;25.74;40.56;100063.19;5403659;32;35415;-72
2022/08/06 04:36:05;;;;;;;;;;;;;;;26.52;38.67;100070.81;5402726;32;36528;-68
2022/08/06 04:39:25;;;;;;;;;;;;;;;25.76;40.14;100066.56;5391311;32;34933;-67
2022/08/06 04:42:46;;;;;;;;;;;;;;;26.24;39.08;100064.91;5402647;32;36133;-74
2022/08/06 04:45:51;;;;;;;;;;;;;;;25.96;39.61;100075.19;5393598;32;37785;-68
2022/08/06 04:49:15;;;;;;;;;;;;;;;27.18;36.65;100075.06;5387852;32;46082;-67
2022/08/06 04:52:22;;;;;;;;;;;;;;;26.59;38.42;100079.91;5378776;32;37683;-67
2022/08/06 04:55:44;;;;;;;;;;;;;;;28.92;33.96;100064.53;5393158;32;44982;-68
2022/08/06 04:59:04;;;;;;;;;;;;;;;27.91;36.27;100079.25;5407121;32;35548;-69
2022/08/06 05:02:08;;;;;;;;;;;;;;;28.29;36.03;100074.75;5396747;32;45175;-68
2022/08/06 05:05:12;;;;;;;;;;;;;;;28.37;36.41;100077.41;5390685;32;34530;-75
2022/08/06 05:08:16;;;;;;;;;;;;;;;29.00;35.14;100068.00;5411937;32;34507;-75
2022/08/06 05:11:19;;;;;;;;;;;;;;;29.33;34.27;100078.41;5390635;32;35888;-68
2022/08/06 05:14:37;;;;;;;;;;;;;;;30.52;32.62;100079.69;5415127;32;35452;-68
2022/08/06 05:17:40;;;;;;;;;;;;;;;30.49;32.50;100074.66;5386110;32;44673;-74
2022/08/06 05:20:50;;;;;;;;;;;;;;;30.43;32.65;100072.72;5383519;32;34746;-68
2022/08/06 05:23:53;;;;;;;;;;;;;;;30.21;32.83;100074.66;5401445;32;34924;-77
2022/08/06 05:26:58;;;;;;;;;;;;;;;31.31;31.03;100073.12;5392832;32;35362;-74
2022/08/06 05:30:01;;;;;;;;;;;;;;;30.67;31.71;100069.62;5400218;32;35453;-67
2022/08/06 05:33:03;;;;;;;;;;;;;;;29.76;33.24;100073.12;5383917;32;35444;-67
2022/08/06 05:36:09;;;;;;;;;;;;;;;32.54;28.81;100077.37;5407281;32;44958;-68
2022/08/06 05:39:20;;;;;;;;;;;;;;;30.67;31.62;100077.75;5401728;32;36071;-68
2022/08/06 05:42:42;;;;;;;;;;;;;;;30.51;31.81;100082.59;5388158;32;45127;-68
2022/08/06 05:45:59;;;;;;;;;;;;;;;30.93;30.51;100081.69;5405350;32;35850;-75
2022/08/06 05:49:12;;;;;;;;;;;;;;;31.10;30.00;100088.44;5391139;32;35472;-73
2022/08/06 05:52:36;;;;;;;;;;;;;;;31.99;28.57;100090.28;5360686;32;35922;-68
2022/08/06 05:55:57;;;;;;;;;;;;;;;32.07;28.80;100090.94;5410571;32;44624;-69
2022/08/06 05:59:01;;;;;;;;;;;;;;;32.08;29.00;100098.06;5391708;32;35298;-68
2022/08/06 06:02:04;;;;;;;;;;;;;;;32.15;28.44;100098.06;5414639;32;35044;-76
2022/08/06 06:05:08;;;;;;;;;;;;;;;32.81;26.65;100091.78;5384243;32;44484;-74
2022/08/06 06:08:29;;;;;;;;;;;;;;;32.48;27.25;100087.22;5375646;32;35906;-75
2022/08/06 06:11:41;;;;;;;;;;;;;;;32.64;27.11;100085.09;5407548;32;44620;-68
2022/08/06 06:15:02;;;;;;;;;;;;;;;32.52;27.39;100090.34;5396167;32;35272;-69
2022/08/06 06:18:36;;;;;;;;;;;;;;;33.84;25.31;100092.72;5414480;32;35030;-68
2022/08/06 06:21:39;;;;;;;;;;;;;;;33.62;25.82;100094.94;5398352;32;45344;-68
2022/08/06 06:24:55;;;;;;;;;;;;;;;34.29;25.02;100098.09;5401826;32;35403;-68
2022/08/06 06:28:13;;;;;;;;;;;;;;;33.18;26.67;100097.59;5399904;32;34816;-68
2022/08/06 06:31:48;;;;;;;;;;;;;;;35.07;23.61;100100.34;5368982;32;35455;-74
2022/08/06 06:35:26;;;;;;;;;;;;;;;35.25;23.24;100094.91;5386880;32;35340;-68
2022/08/06 06:38:38;;;;;;;;;;;;;;;34.97;23.78;100105.50;5403338;32;35190;-69
2022/08/06 06:41:49;;;;;;;;;;;;;;;35.14;23.67;100109.31;5385052;32;44530;-75
2022/08/06 06:44:57;;;;;;;;;;;;;;;35.89;22.89;100106.28;5409968;32;37514;-68
2022/08/06 06:48:20;;;;;;;;;;;;;;;35.71;22.92;100098.97;5393672;32;35802;-70
2022/08/06 06:51:32;;;;;;;;;;;;;;;36.88;21.59;100099.25;5381311;32;35672;-70
2022/08/06 06:54:57;;;;;;;;;;;;;;;37.18;21.15;100103.75;5408515;32;36105;-75
2022/08/06 06:58:12;;;;;;;;;;;;;;;35.88;23.33;100109.25;5393608;32;46645;-75
2022/08/06 07:01:25;;;;;;;;;;;;;;;36.27;23.19;100103.22;5388226;32;35364;-68
2022/08/06 07:04:30;;;;;;;;;;;;;;;36.43;22.91;100098.97;5399621;32;35636;-69
2022/08/06 07:07:32;;;;;;;;;;;;;;;35.22;24.29;100099.97;5380033;32;35953;-75
2022/08/06 07:10:34;;;;;;;;;;;;;;;36.06;23.29;100099.09;5410419;32;34642;-71
2022/08/06 07:13:37;;;;;;;;;;;;;;;37.00;22.12;100112.94;5386926;32;44511;-70
2022/08/06 07:16:54;;;;;;;;;;;;;;;35.43;23.97;100115.94;5409317;32;36888;-68
2022/08/06 07:19:57;;;;;;;;;;;;;;;34.76;24.33;100120.38;5392230;32;36054;-69
2022/08/06 07:23:03;;;;;;;;;;;;;;;34.61;24.21;100119.91;5391036;32;35268;-74
2022/08/06 07:26:25;;;;;;;;;;;;;;;35.76;22.65;100117.41;5401696;32;35051;-69
2022/08/06 07:29:27;;;;;;;;;;;;;;;35.50;22.98;100113.97;5384765;32;34922;-73
2022/08/06 07:32:49;;;;;;;;;;;;;;;36.84;21.16;100119.94;5393752;32;35882;-70
2022/08/06 07:35:52;;;;;;;;;;;;;;;36.12;22.10;100121.13;5387863;32;37043;-75
2022/08/06 07:38:58;;;;;;;;;;;;;;;36.78;21.54;100117.34;5377787;32;36206;-73
2022/08/06 07:42:01;;;;;;;;;;;;;;;35.60;22.78;100113.41;5409656;32;35826;-75
2022/08/06 07:45:13;;;;;;;;;;;;;;;36.60;21.66;100121.84;5392773;32;43125;-68
2022/08/06 07:48:18;;;;;;;;;;;;;;;35.78;22.86;100126.22;5398591;32;35555;-69
2022/08/06 07:51:22;;;;;;;;;;;;;;;36.32;22.27;100121.63;5374581;32;35125;-68
2022/08/06 07:54:35;;;;;;;;;;;;;;;37.56;20.86;100133.34;5398219;32;35780;-68
2022/08/06 07:57:37;;;;;;;;;;;;;;;36.29;22.39;100122.13;5394613;32;35686;-69
2022/08/06 08:00:59;;;;;;;;;;;;;;;36.92;21.42;100121.53;5380782;32;36185;-75
2022/08/06 08:07:36;;;;;;;;;;;;;;;36.91;21.85;100125.34;5380855;32;35288;-76
2022/08/06 08:10:58;;;;;;;;;;;;;;;37.45;21.14;100125.97;5394257;32;35271;-69
2022/08/06 08:14:02;;;;;;;;;;;;;;;39.02;19.35;100110.66;5410441;32;36574;-71
2022/08/06 08:17:06;;;;;;;;;;;;;;;40.28;17.89;100113.25;5383537;32;42791;-70
2022/08/06 08:20:08;;;;;;;;;;;;;;;36.79;21.47;100124.47;5411795;32;36104;-70
2022/08/06 08:23:16;;;;;;;;;;;;;;;39.16;19.07;100122.13;5383866;32;35835;-70
2022/08/06 08:26:34;;;;;;;;;;;;;;;38.36;20.03;100126.09;5397364;32;35697;-74
2022/08/06 08:29:56;;;;;;;;;;;;;;;38.19;20.23;100121.41;5407254;32;34967;-69
2022/08/06 08:33:00;;;;;;;;;;;;;;;38.95;19.33;100110.84;5392419;32;35873;-75
2022/08/06 08:36:06;;;;;;;;;;;;;;;39.62;18.53;100129.09;5406948;32;44569;-68
2022/08/06 08:39:12;;;;;;;;;;;;;;;39.16;18.93;100119.38;5396591;32;35029;-75
2022/08/06 08:42:16;;;;;;;;;;;;;;;40.39;17.74;100116.13;5382171;32;34709;-74
2022/08/06 08:45:28;;;;;;;;;;;;;;;39.83;18.43;100115.56;5407486;32;33258;-74
2022/08/06 08:48:34;;;;;;;;;;;;;;;42.03;15.92;100107.59;5388589;32;34980;-69
2022/08/06 08:51:39;;;;;;;;;;;;;;;38.10;19.78;100127.53;5380126;32;44274;-77
2022/08/06 08:54:45;;;;;;;;;;;;;;;39.10;18.88;100121.22;5401814;32;36499;-75
2022/08/06 08:57:48;;;;;;;;;;;;;;;42.46;15.67;100112.59;5401799;32;34840;-70
2022/08/06 09:01:10;;;;;;;;;;;;;;;42.33;15.69;100112.34;5403268;32;44986;-74
2022/08/06 09:04:32;;;;;;;;;;;;;;;39.53;18.09;100125.06;5384215;32;35959;-69
2022/08/06 09:07:34;;;;;;;;;;;;;;;39.59;18.04;100115.81;5400777;32;45042;-77
2022/08/06 09:10:38;;;;;;;;;;;;;;;38.85;18.92;100124.44;5392629;32;44696;-69
2022/08/06 09:13:42;;;;;;;;;;;;;;;39.52;18.20;100121.50;5397978;32;34644;-76
2022/08/06 09:16:52;;;;;;;;;;;;;;;39.63;18.05;100124.41;5411021;32;35645;-77
2022/08/06 09:19:55;;;;;;;;;;;;;;;42.75;15.25;100105.69;5388285;32;35306;-77
2022/08/06 09:22:59;;;;;;;;;;;;;;;40.96;16.72;100120.94;5399522;32;36170;-76
2022/08/06 09:26:03;;;;;;;;;;;;;;;41.82;16.00;100112.25;5383065;32;35551;-68
2022/08/06 09:29:19;;;;;;;;;;;;;;;43.30;14.55;100109.41;5412822;32;46308;-68
2022/08/06 09:32:43;;;;;;;;;;;;;;;42.43;15.47;100113.16;5389187;32;35717;-76
2022/08/06 09:36:00;;;;;;;;;;;;;;;41.60;16.28;100120.72;5396090;32;35454;-74
2022/08/06 09:39:02;;;;;;;;;;;;;;;43.23;14.63;100109.72;5410868;32;36927;-74
2022/08/06 09:42:11;;;;;;;;;;;;;;;42.09;15.24;100095.44;5382976;32;47268;-75
2022/08/06 09:45:15;;;;;;;;;;;;;;;41.72;15.77;100117.72;5409177;32;36309;-75
2022/08/06 09:48:18;;;;;;;;;;;;;;;41.32;15.57;100119.25;5394306;32;37410;-76
2022/08/06 09:51:24;;;;;;;;;;;;;;;39.25;17.31;100106.88;5372621;32;35554;-71
2022/08/06 09:54:48;;;;;;;;;;;;;;;40.62;16.28;100110.25;5405175;32;35476;-75
2022/08/06 09:57:54;;;;;;;;;;;;;;;42.08;15.00;100093.81;5389081;32;35378;-69
2022/08/06 10:01:10;;;;;;;;;;;;;;;42.12;15.14;100101.28;5404183;32;34684;-76
2022/08/06 10:04:26;;;;;;;;;;;;;;;42.82;13.68;100098.75;5391834;32;35323;-76
2022/08/06 10:07:37;;;;;;;;;;;;;;;41.47;14.51;100108.25;5384112;32;44738;-70
2022/08/06 10:10:45;;;;;;;;;;;;;;;41.25;14.70;100107.59;5411430;32;36440;-77
2022/08/06 10:13:50;;;;;;;;;;;;;;;40.28;15.67;100096.75;5400496;32;35397;-75
2022/08/06 10:17:07;;;;;;;;;;;;;;;41.65;14.56;100107.75;5409596;32;34844;-69
2022/08/06 10:20:12;;;;;;;;;;;;;;;41.83;14.48;100100.12;5397868;32;44376;-68
2022/08/06 10:23:19;;;;;;;;;;;;;;;41.36;14.92;100103.81;5369599;32;35896;-77
2022/08/06 10:26:25;;;;;;;;;;;;;;;42.27;13.97;100094.13;5411690;32;35318;-69
2022/08/06 10:29:27;;;;;;;;;;;;;;;42.35;13.86;100088.84;5392410;32;34820;-69
2022/08/06 10:32:41;;;;;;;;;;;;;;;41.55;14.57;100095.91;5396584;32;35233;-69
2022/08/06 10:35:45;;;;;;;;;;;;;;;44.08;12.66;100084.63;5389613;32;37109;-79
2022/08/06 10:38:50;;;;;;;;;;;;;;;43.05;13.28;100096.50;5390898;32;35664;-69
2022/08/06 10:41:54;;;;;;;;;;;;;;;43.47;13.00;100088.59;5403687;32;35575;-77
2022/08/06 10:45:05;;;;;;;;;;;;;;;43.51;12.95;100089.69;5388204;32;35961;-76
2022/08/06 10:48:15;;;;;;;;;;;;;;;41.73;14.44;100089.84;5411580;32;43125;-70
2022/08/06 10:51:37;;;;;;;;;;;;;;;40.09;16.29;100084.47;5375365;32;44967;-76
2022/08/06 10:54:59;;;;;;;;;;;;;;;38.83;17.54;100093.63;5385831;32;35877;-70
2022/08/06 10:58:02;;;;;;;;;;;;;;;39.97;16.23;100087.34;5412845;32;35780;-76
2022/08/06 11:01:17;;;;;;;;;;;;;;;40.43;16.12;100086.94;5387585;32;45106;-76
2022/08/06 11:04:58;;;;;;;;;;;;;;;41.56;15.04;100086.50;5404106;32;35547;-69
2022/08/06 11:08:12;;;;;;;;;;;;;;;42.10;14.68;100080.53;5346402;32;36106;-69
2022/08/06 11:11:46;;;;;;;;;;;;;;;40.42;15.65;100080.59;5329459;32;35681;-74
2022/08/06 11:15:07;;;;;;;;;;;;;;;40.79;15.33;100077.84;5405850;32;33916;-70
2022/08/06 11:18:09;;;;;;;;;;;;;;;44.14;12.87;100061.31;5385458;32;35126;-77
2022/08/06 11:21:37;;;;;;;;;;;;;;;42.06;14.92;100068.38;5389008;32;35346;-70
2022/08/06 11:24:59;;;;;;;;;;;;;;;44.22;13.33;100066.25;5406115;32;36664;-70
2022/08/06 11:28:06;;;;;;;;;;;;;;;43.08;14.52;100071.06;5382289;32;43466;-69
2022/08/06 11:31:09;;;;;;;;;;;;;;;44.41;13.29;100046.97;5399659;32;36041;-70
2022/08/06 11:34:20;;;;;;;;;;;;;;;45.27;12.60;100041.56;5392063;32;36631;-76
2022/08/06 11:37:45;;;;;;;;;;;;;;;44.88;12.76;100037.03;5379625;32;46186;-77
2022/08/06 11:41:08;;;;;;;;;;;;;;;47.36;11.15;100035.12;5404875;32;45242;-70
2022/08/06 11:44:10;;;;;;;;;;;;;;;44.10;13.72;100034.50;5398887;32;35324;-75
2022/08/06 11:47:21;;;;;;;;;;;;;;;42.12;15.60;100029.50;5392488;32;35927;-75
2022/08/06 11:50:37;;;;;;;;;;;;;;;39.95;17.50;100044.69;5390928;32;46254;-77
2022/08/06 11:53:41;;;;;;;;;;;;;;;38.66;18.86;100051.63;5380876;32;36052;-70
2022/08/06 11:57:04;;;;;;;;;;;;;;;39.93;17.57;100041.34;5406972;32;35679;-77
2022/08/06 12:00:10;;;;;;;;;;;;;;;39.51;17.82;100036.53;5392470;32;45094;-70
2022/08/06 12:03:14;;;;;;;;;;;;;;;38.87;18.69;100050.84;5397936;32;35048;-70
2022/08/06 12:06:20;;;;;;;;;;;;;;;36.78;22.57;100060.66;5390343;32;35418;-68
2022/08/06 12:09:35;;;;;;;;;;;;;;;37.03;23.44;100060.41;5401792;32;35804;-68
2022/08/06 12:12:45;;;;;;;;;;;;;;;37.08;24.06;100060.50;5422923;32;47986;-70
2022/08/06 12:15:51;;;;;;;;;;;;;;;37.63;23.92;100045.47;5393348;32;37093;-79
2022/08/06 12:19:13;;;;;;;;;;;;;;;37.45;23.99;100046.50;5402673;32;45908;-69
2022/08/06 12:22:15;;;;;;;;;;;;;;;37.65;24.26;100044.13;5395671;32;38258;-74
2022/08/06 12:25:17;;;;;;;;;;;;;;;39.54;22.18;100045.06;5369732;32;35502;-76
2022/08/06 12:28:20;;;;;;;;;;;;;;;40.70;20.68;100043.63;5414622;32;36996;-77
2022/08/06 12:31:32;;;;;;;;;;;;;;;39.18;22.35;100034.78;5401193;32;35840;-70
2022/08/06 12:34:39;;;;;;;;;;;;;;;40.41;20.99;100040.41;5412280;32;45033;-78
2022/08/06 12:37:59;;;;;;;;;;;;;;;39.30;22.61;100042.91;5389758;32;35665;-71
2022/08/06 12:41:06;;;;;;;;;;;;;;;39.33;22.74;100043.19;5390641;32;35580;-76
2022/08/06 12:44:13;;;;;;;;;;;;;;;38.32;24.06;100042.56;5413004;32;44311;-75
2022/08/06 12:47:15;;;;;;;;;;;;;;;36.60;26.20;100060.78;5386280;32;35200;-77
2022/08/06 12:50:18;;;;;;;;;;;;;;;36.39;27.04;100056.75;5400014;32;35201;-70
2022/08/06 12:53:31;;;;;;;;;;;;;;;37.26;25.92;100054.03;5380479;32;35298;-70
2022/08/06 12:56:34;;;;;;;;;;;;;;;36.81;26.47;100064.81;5387674;32;34851;-78
2022/08/06 12:59:39;;;;;;;;;;;;;;;36.72;26.73;100078.06;5407992;32;44638;-70
2022/08/06 13:02:45;;;;;;;;;;;;;;;36.08;27.41;100066.06;5384677;32;35736;-70
2022/08/06 13:05:47;;;;;;;;;;;;;;;36.70;26.49;100071.97;5406600;32;34863;-75
2022/08/06 13:08:50;;;;;;;;;;;;;;;35.55;28.22;100064.06;5383050;32;35859;-70
2022/08/06 13:11:53;;;;;;;;;;;;;;;36.61;26.64;100059.72;5405032;32;35545;-68
2022/08/06 13:14:56;;;;;;;;;;;;;;;36.62;26.74;100064.13;5396202;32;36387;-76
2022/08/06 13:18:18;;;;;;;;;;;;;;;36.55;26.78;100066.97;5396299;32;35038;-78
2022/08/06 13:21:41;;;;;;;;;;;;;;;36.63;26.70;100073.16;5404609;32;47849;-69
2022/08/06 13:25:12;;;;;;;;;;;;;;;35.60;28.06;100066.09;5389617;32;35167;-76
2022/08/06 13:28:33;;;;;;;;;;;;;;;35.16;28.59;100059.91;5393677;32;35925;-79
2022/08/06 13:31:40;;;;;;;;;;;;;;;35.58;28.18;100074.53;5402702;32;45152;-77
2022/08/06 13:35:01;;;;;;;;;;;;;;;36.07;27.31;100064.41;5392786;32;35191;-71
2022/08/06 13:38:04;;;;;;;;;;;;;;;36.15;27.10;100060.50;5401118;32;35905;-70
2022/08/06 13:41:26;;;;;;;;;;;;;;;36.33;26.93;100060.41;5390045;32;34988;-69
2022/08/06 13:44:31;;;;;;;;;;;;;;;35.69;27.88;100067.47;5379053;32;36323;-76
2022/08/06 13:47:32;;;;;;;;;;;;;;;35.71;27.67;100060.69;5406376;32;35577;-68
2022/08/06 13:50:55;;;;;;;;;;;;;;;36.35;27.08;100061.81;5372564;32;35801;-75
2022/08/06 13:53:57;;;;;;;;;;;;;;;36.49;26.52;100062.44;5405869;32;35251;-70
2022/08/06 13:57:04;;;;;;;;;;;;;;;35.40;28.06;100063.63;5386391;32;35004;-69
2022/08/06 14:00:09;;;;;;;;;;;;;;;35.73;27.48;100061.28;5392116;32;46637;-70
2022/08/06 14:03:13;;;;;;;;;;;;;;;36.32;26.96;100055.97;5408838;32;35142;-77
2022/08/06 14:06:16;;;;;;;;;;;;;;;35.49;28.02;100063.13;5390166;32;35056;-74
2022/08/06 14:09:19;;;;;;;;;;;;;;;35.65;27.89;100047.94;5407563;32;35707;-68
2022/08/06 14:12:22;;;;;;;;;;;;;;;35.54;28.48;100059.66;5381127;32;35637;-77
2022/08/06 14:15:31;;;;;;;;;;;;;;;35.58;28.56;100058.16;5407278;32;35681;-70
2022/08/06 14:18:43;;;;;;;;;;;;;;;35.22;29.08;100050.81;5394448;32;46820;-75
2022/08/06 14:22:02;;;;;;;;;;;;;;;34.93;29.67;100069.62;5389664;32;34780;-76
2022/08/06 14:25:05;;;;;;;;;;;;;;;35.67;28.58;100067.69;5405969;32;45289;-69
2022/08/06 14:28:08;;;;;;;;;;;;;;;34.33;30.41;100072.06;5384713;32;35309;-68
2022/08/06 14:31:10;;;;;;;;;;;;;;;34.37;30.42;100077.87;5406961;32;34928;-78
2022/08/06 14:34:12;;;;;;;;;;;;;;;33.55;31.60;100077.75;5390713;32;34826;-76
2022/08/06 14:37:16;;;;;;;;;;;;;;;33.54;31.58;100083.44;5384904;32;35365;-68
2022/08/06 14:47:25;;;;;;;;;;;;;;;33.76;30.99;100092.97;5414051;32;35694;-76
2022/08/06 14:50:47;;;;;;;;;;;;;;;34.32;30.34;100099.53;5392681;32;35305;-77
2022/08/06 14:53:49;;;;;;;;;;;;;;;34.47;30.21;100100.91;5381265;32;37596;-70
2022/08/06 14:56:53;;;;;;;;;;;;;;;33.64;31.86;100114.63;5408537;32;35606;-76
2022/08/06 14:59:55;;;;;;;;;;;;;;;33.67;31.95;100132.41;5383716;32;35490;-76
2022/08/06 15:02:58;;;;;;;;;;;;;;;33.28;32.69;100139.66;5405326;32;34700;-68
2022/08/06 15:06:00;;;;;;;;;;;;;;;33.19;33.02;100137.41;5384458;32;34719;-69
2022/08/06 15:09:07;;;;;;;;;;;;;;;32.61;34.07;100138.91;5388277;32;47970;-77
2022/08/06 15:12:11;;;;;;;;;;;;;;;32.32;34.45;100141.97;5399748;32;34555;-69
2022/08/06 15:15:15;;;;;;;;;;;;;;;31.88;35.56;100153.38;5392514;32;33742;-70
2022/08/06 15:18:17;;;;;;;;;;;;;;;32.08;35.30;100160.56;5403135;32;34710;-70
2022/08/06 15:21:39;;;;;;;;;;;;;;;31.26;37.04;100153.31;5386535;32;44957;-75
2022/08/06 15:24:55;;;;;;;;;;;;;;;32.04;35.69;100172.06;5392215;32;35576;-75
2022/08/06 15:27:57;;;;;;;;;;;;;;;31.33;36.91;100168.78;5401609;32;35819;-69
2022/08/06 15:31:01;;;;;;;;;;;;;;;31.26;36.99;100176.91;5394112;32;34956;-76
2022/08/06 15:34:06;;;;;;;;;;;;;;;32.32;35.15;100170.00;5410156;32;44588;-69
2022/08/06 15:37:08;;;;;;;;;;;;;;;31.95;35.65;100178.72;5390376;32;34788;-76
2022/08/06 15:40:30;;;;;;;;;;;;;;;31.73;36.33;100186.94;5391735;32;35567;-69
2022/08/06 15:43:33;;;;;;;;;;;;;;;31.95;35.66;100185.00;5392861;32;33848;-76
2022/08/06 15:46:45;;;;;;;;;;;;;;;32.15;35.38;100176.91;5392371;32;35138;-72
2022/08/06 15:49:48;;;;;;;;;;;;;;;31.43;36.73;100188.25;5408860;32;35581;-69
2022/08/06 15:53:06;;;;;;;;;;;;;;;31.05;37.55;100188.63;5375936;32;43254;-69
2022/08/06 15:56:26;;;;;;;;;;;;;;;31.69;36.24;100187.59;5401554;32;34633;-76
2022/08/06 15:59:48;;;;;;;;;;;;;;;31.31;36.75;100187.16;5407809;32;36434;-70
2022/08/06 16:02:53;;;;;;;;;;;;;;;31.09;37.36;100186.34;5383362;32;35920;-67
2022/08/06 16:05:55;;;;;;;;;;;;;;;31.23;36.89;100188.09;5406238;32;35594;-76
2022/08/06 16:09:13;;;;;;;;;;;;;;;31.77;35.85;100190.13;5393168;32;44392;-68
2022/08/06 16:12:29;;;;;;;;;;;;;;;32.05;35.29;100181.88;5391281;32;34736;-68
2022/08/06 16:15:31;;;;;;;;;;;;;;;31.64;35.96;100193.63;5405015;32;34953;-75
2022/08/06 16:18:38;;;;;;;;;;;;;;;30.98;37.41;100196.72;5387933;32;44669;-69
2022/08/06 16:21:53;;;;;;;;;;;;;;;31.07;36.87;100186.56;5410354;32;35996;-69
2022/08/06 16:24:57;;;;;;;;;;;;;;;30.48;38.11;100193.13;5394141;32;35314;-75